createdAt,value
2022-09-28T00:01:18.241Z,98074.50
2022-09-28T00:03:49.827Z,98074.50
2022-09-28T00:06:19.437Z,98072.84
2022-09-28T00:08:46.451Z,98061.69
2022-09-28T00:11:18.963Z,98070.25
2022-09-28T00:13:48.318Z,98067.66
2022-09-28T00:16:19.707Z,98065.97
2022-09-28T00:18:46.697Z,98065.91
2022-09-28T00:21:16.306Z,98050.47
2022-09-28T00:24:01.910Z,98053.84
2022-09-28T00:26:30.068Z,98052.16
2022-09-28T00:28:59.190Z,98055.63
2022-09-28T00:31:28.113Z,98059.03
2022-09-28T00:33:56.927Z,98054.78
2022-09-28T00:36:26.910Z,98049.69
2022-09-28T00:38:56.411Z,98057.34
2022-09-28T00:41:25.181Z,98051.44
2022-09-28T00:43:52.140Z,98046.44
2022-09-28T00:46:31.119Z,98048.97
2022-09-28T00:49:11.191Z,98047.28
2022-09-28T00:51:41.307Z,98054.03
2022-09-28T00:54:09.153Z,98049.72
2022-09-28T00:56:38.315Z,98048.88
2022-09-28T00:59:05.343Z,98046.28
2022-09-28T01:01:31.876Z,98042.84
2022-09-28T01:03:59.173Z,98027.47
2022-09-28T01:06:31.038Z,98029.16
2022-09-28T01:09:00.660Z,98033.47
2022-09-28T01:11:27.782Z,98036.88
2022-09-28T01:13:57.791Z,98036.09
2022-09-28T01:16:51.070Z,98052.25
2022-09-28T01:19:39.563Z,98037.69
2022-09-28T01:22:12.185Z,98040.25
2022-09-28T01:24:38.645Z,98041.94
2022-09-28T01:27:23.021Z,98036.81
2022-09-28T01:30:01.662Z,98035.16
2022-09-28T01:32:30.793Z,98032.53
2022-09-28T01:35:04.166Z,98028.28
2022-09-28T01:37:39.045Z,98024.06
2022-09-28T01:40:07.663Z,98027.44
2022-09-28T01:42:38.920Z,98034.25
2022-09-28T01:45:18.144Z,98031.78
2022-09-28T01:47:47.967Z,98024.94
2022-09-28T01:50:19.515Z,98033.53
2022-09-28T01:52:54.568Z,98032.63
2022-09-28T01:55:45.942Z,98035.16
2022-09-28T01:58:18.806Z,98037.72
2022-09-28T02:00:52.041Z,98028.41
2022-09-28T02:03:25.063Z,98040.34
2022-09-28T02:05:57.068Z,98034.44
2022-09-28T02:08:29.995Z,98034.44
2022-09-28T02:11:12.499Z,98039.50
2022-09-28T02:14:03.934Z,98041.19
2022-09-28T02:16:41.209Z,98039.47
2022-09-28T02:19:14.625Z,98034.44
2022-09-28T02:21:53.947Z,98043.75
2022-09-28T02:24:27.183Z,98041.19
2022-09-28T02:26:59.123Z,98033.53
2022-09-28T02:29:25.900Z,98030.13
2022-09-28T02:31:52.715Z,98030.94
2022-09-28T02:34:19.311Z,98030.16
2022-09-28T02:36:46.905Z,98034.44
2022-09-28T02:39:17.902Z,98030.19
2022-09-28T02:42:12.387Z,98048.97
2022-09-28T02:45:06.416Z,98050.66
2022-09-28T02:48:00.736Z,98059.25
2022-09-28T02:50:39.650Z,98054.09
2022-09-28T02:53:34.003Z,98055.03
2022-09-28T02:56:25.334Z,98049.00
2022-09-28T02:59:07.500Z,98046.56
2022-09-28T03:02:22.648Z,98052.50
2022-09-28T03:05:03.247Z,98050.78
2022-09-28T03:07:56.657Z,98042.16
2022-09-28T03:10:48.665Z,98042.16
2022-09-28T03:13:16.730Z,98037.06
2022-09-28T03:15:48.531Z,98044.78
2022-09-28T03:18:15.506Z,98042.22
2022-09-28T03:20:42.192Z,98042.22
2022-09-28T03:23:25.251Z,98046.44
2022-09-28T03:25:52.398Z,98030.22
2022-09-28T03:28:19.486Z,98033.69
2022-09-28T03:30:46.015Z,98043.91
2022-09-28T03:33:12.569Z,98037.88
2022-09-28T03:35:39.110Z,98030.19
2022-09-28T03:38:05.637Z,98033.56
2022-09-28T03:40:32.253Z,98035.28
2022-09-28T03:43:00.561Z,98031.88
2022-09-28T03:45:27.093Z,98031.00
2022-09-28T03:47:53.680Z,98034.44
2022-09-28T03:50:20.252Z,98034.44
2022-09-28T03:52:46.810Z,98033.66
2022-09-28T03:55:13.587Z,98040.44
2022-09-28T03:57:40.134Z,98040.44
2022-09-28T04:00:07.188Z,98043.00
2022-09-28T04:02:34.937Z,98038.75
2022-09-28T04:05:01.895Z,98030.19
2022-09-28T04:07:31.065Z,98048.97
2022-09-28T04:09:58.231Z,98043.00
2022-09-28T04:12:24.820Z,98037.91
2022-09-28T04:14:51.419Z,98046.44
2022-09-28T04:17:18.022Z,98049.00
2022-09-28T04:19:44.578Z,98049.81
2022-09-28T04:22:11.104Z,98038.66
2022-09-28T04:24:37.831Z,98039.50
2022-09-28T04:27:22.970Z,98035.22
2022-09-28T04:29:49.567Z,98035.16
2022-09-28T04:32:16.112Z,98030.06
2022-09-28T04:34:44.272Z,98025.72
2022-09-28T04:37:11.169Z,98024.00
2022-09-28T04:39:37.934Z,98026.59
2022-09-28T04:42:04.626Z,98021.44
2022-09-28T04:44:31.304Z,98021.47
2022-09-28T04:47:00.666Z,98023.13
2022-09-28T04:49:30.845Z,98029.13
2022-09-28T04:51:57.411Z,98029.06
2022-09-28T04:54:23.977Z,98031.59
2022-09-28T04:56:51.176Z,98031.59
2022-09-28T04:59:17.842Z,98019.56
2022-09-28T05:01:44.619Z,98025.56
2022-09-28T05:04:11.159Z,98022.94
2022-09-28T05:06:37.731Z,98025.47
2022-09-28T05:09:04.326Z,98012.59
2022-09-28T05:11:30.949Z,98019.44
2022-09-28T05:13:57.531Z,98015.97
2022-09-28T05:16:25.671Z,98024.53
2022-09-28T05:18:56.151Z,98028.81
2022-09-28T05:21:25.214Z,98031.31
2022-09-28T05:23:52.205Z,98031.31
2022-09-28T05:26:19.239Z,98027.00
2022-09-28T05:28:45.869Z,98027.78
2022-09-28T05:31:12.418Z,98017.47
2022-09-28T05:33:38.999Z,98021.72
2022-09-28T05:36:10.433Z,98032.88
2022-09-28T05:38:37.384Z,98026.88
2022-09-28T05:41:06.589Z,98015.78
2022-09-28T05:43:33.626Z,98036.25
2022-09-28T05:46:00.719Z,98036.25
2022-09-28T05:48:28.307Z,98041.38
2022-09-28T05:50:55.177Z,98036.25
2022-09-28T05:53:21.867Z,98049.84
2022-09-28T05:55:48.496Z,98049.81
2022-09-28T05:58:15.252Z,98047.22
2022-09-28T06:00:41.785Z,98036.13
2022-09-28T06:03:11.801Z,98039.38
2022-09-28T06:05:41.820Z,98037.56
2022-09-28T06:08:12.772Z,98039.19
2022-09-28T06:10:40.028Z,98038.31
2022-09-28T06:13:07.529Z,98031.38
2022-09-28T06:15:36.065Z,98018.53
2022-09-28T06:18:05.246Z,98033.78
2022-09-28T06:20:35.246Z,98026.78
2022-09-28T06:23:02.113Z,98020.78
2022-09-28T06:25:28.788Z,98020.75
2022-09-28T06:28:00.563Z,98010.44
2022-09-28T06:30:28.676Z,98008.56
2022-09-28T06:32:57.066Z,97998.31
2022-09-28T06:35:25.482Z,97994.00
2022-09-28T06:37:52.646Z,97994.00
2022-09-28T06:40:20.147Z,97995.59
2022-09-28T06:43:10.107Z,98004.09
2022-09-28T06:45:38.240Z,97996.31
2022-09-28T06:48:05.578Z,97997.03
2022-09-28T06:50:37.422Z,97999.69
2022-09-28T06:53:06.638Z,98004.72
2022-09-28T06:55:33.624Z,97996.16
2022-09-28T06:58:03.214Z,97998.66
2022-09-28T07:00:33.921Z,97990.09
2022-09-28T07:03:02.671Z,97995.19
2022-09-28T07:05:29.986Z,97991.78
2022-09-28T07:07:57.451Z,97983.25
2022-09-28T07:10:28.627Z,97989.13
2022-09-28T07:12:56.987Z,97984.81
2022-09-28T07:15:24.992Z,97983.97
2022-09-28T07:18:03.054Z,97971.19
2022-09-28T07:20:31.729Z,97972.88
2022-09-28T07:23:11.546Z,97971.03
2022-09-28T07:25:45.438Z,97967.59
2022-09-28T07:28:12.407Z,97975.28
2022-09-28T07:30:39.161Z,97965.81
2022-09-28T07:33:07.932Z,97976.13
2022-09-28T07:35:34.560Z,97976.97
2022-09-28T07:38:04.551Z,97972.75
2022-09-28T07:40:50.950Z,97983.75
2022-09-28T07:43:20.685Z,97984.56
2022-09-28T07:45:49.188Z,97975.09
2022-09-28T07:48:17.130Z,97984.53
2022-09-28T07:50:57.257Z,97985.38
2022-09-28T07:53:25.502Z,97985.41
2022-09-28T07:55:52.679Z,97977.69
2022-09-28T07:58:20.310Z,97986.94
2022-09-28T08:00:48.529Z,97982.47
2022-09-28T08:03:16.944Z,97984.16
2022-09-28T08:05:43.822Z,97981.47
2022-09-28T08:08:10.745Z,97983.13
2022-09-28T08:10:37.806Z,97978.78
2022-09-28T08:13:06.477Z,97975.31
2022-09-28T08:15:37.084Z,97983.03
2022-09-28T08:18:07.011Z,97976.09
2022-09-28T08:20:52.874Z,97979.53
2022-09-28T08:23:20.337Z,97982.81
2022-09-28T08:25:49.074Z,97980.25
2022-09-28T08:28:17.977Z,97980.25
2022-09-28T08:30:45.889Z,97977.56
2022-09-28T08:33:23.597Z,97976.66
2022-09-28T08:36:01.038Z,97981.59
2022-09-28T08:38:29.535Z,97983.97
2022-09-28T08:41:04.264Z,97976.78
2022-09-28T08:43:55.099Z,97977.31
2022-09-28T08:46:27.312Z,97972.78
2022-09-28T08:49:24.090Z,97973.31
2022-09-28T08:52:11.515Z,97973.09
2022-09-28T08:55:02.462Z,97972.91
2022-09-28T08:57:45.777Z,97968.56
2022-09-28T09:00:36.526Z,97965.06
2022-09-28T09:03:11.873Z,97965.78
2022-09-28T09:06:05.971Z,97963.16
2022-09-28T09:09:06.411Z,97964.00
2022-09-28T09:11:56.245Z,97957.94
2022-09-28T09:14:41.348Z,97968.41
2022-09-28T09:17:18.960Z,97969.34
2022-09-28T09:20:13.769Z,97972.75
2022-09-28T09:22:43.646Z,97971.97
2022-09-28T09:25:21.548Z,97973.59
2022-09-28T09:27:57.024Z,97970.00
2022-09-28T09:30:25.443Z,97969.84
2022-09-28T09:33:32.780Z,97970.50
2022-09-28T09:36:05.130Z,97966.81
2022-09-28T09:38:43.726Z,97971.00
2022-09-28T09:41:20.292Z,97967.41
2022-09-28T09:43:56.083Z,97963.69
2022-09-28T09:46:38.267Z,97963.28
2022-09-28T09:49:23.176Z,97954.28
2022-09-28T09:52:01.833Z,97940.88
2022-09-28T09:54:47.822Z,97957.63
2022-09-28T09:57:19.098Z,97946.31
2022-09-28T09:59:47.407Z,97954.72
2022-09-28T10:02:45.032Z,97958.81
2022-09-28T10:05:11.549Z,97957.09
2022-09-28T10:08:02.527Z,97955.22
2022-09-28T10:10:34.128Z,97952.56
2022-09-28T10:13:01.270Z,97958.69
2022-09-28T10:15:31.491Z,97963.06
2022-09-28T10:18:03.218Z,97971.59
2022-09-28T10:20:34.222Z,97965.50
2022-09-28T10:23:04.893Z,97970.75
2022-09-28T10:25:36.425Z,97965.59
2022-09-28T10:28:06.323Z,97967.56
2022-09-28T10:30:44.455Z,97959.09
2022-09-28T10:33:32.016Z,97964.16
2022-09-28T10:36:01.133Z,97955.41
2022-09-28T10:38:30.212Z,97941.47
2022-09-28T10:41:01.949Z,97938.59
2022-09-28T10:43:33.639Z,97942.44
2022-09-28T10:46:05.575Z,97944.97
2022-09-28T10:48:54.045Z,97951.72
2022-09-28T10:51:20.957Z,97950.91
2022-09-28T10:54:00.926Z,97946.44
2022-09-28T10:56:30.145Z,97952.28
2022-09-28T10:58:57.983Z,97953.06
2022-09-28T11:01:33.413Z,97940.00
2022-09-28T11:04:08.045Z,97955.44
2022-09-28T11:06:40.907Z,97951.34
2022-09-28T11:09:31.103Z,97955.78
2022-09-28T11:11:59.877Z,97959.38
2022-09-28T11:14:42.147Z,97956.06
2022-09-28T11:17:27.669Z,97961.38
2022-09-28T11:19:56.019Z,97964.75
2022-09-28T11:22:29.942Z,97957.88
2022-09-28T11:25:24.466Z,97958.06
2022-09-28T11:27:50.985Z,97951.19
2022-09-28T11:30:45.082Z,97955.69
2022-09-28T11:33:30.026Z,97949.94
2022-09-28T11:36:12.859Z,97954.38
2022-09-28T11:39:08.971Z,97954.56
2022-09-28T11:41:44.311Z,97960.59
2022-09-28T11:44:29.440Z,97950.31
2022-09-28T11:47:57.374Z,97955.63
2022-09-28T11:50:35.697Z,97954.88
2022-09-28T11:53:34.813Z,97957.50
2022-09-28T11:56:27.053Z,97960.41
2022-09-28T11:58:58.517Z,97959.91
2022-09-28T12:01:51.472Z,97972.94
2022-09-28T12:04:25.011Z,97967.16
2022-09-28T12:07:43.793Z,97975.13
2022-09-28T12:10:31.718Z,97973.56
2022-09-28T12:13:08.227Z,97971.19
2022-09-28T12:16:12.772Z,97972.91
2022-09-28T12:18:41.736Z,97974.69
2022-09-28T12:21:29.873Z,97965.41
2022-09-28T12:24:10.405Z,97969.91
2022-09-28T12:26:45.871Z,97966.63
2022-09-28T12:29:18.486Z,97964.91
2022-09-28T12:32:01.889Z,97961.53
2022-09-28T12:34:28.617Z,97963.34
2022-09-28T12:37:42.263Z,97971.88
2022-09-28T12:40:36.250Z,97967.56
2022-09-28T12:43:21.288Z,97970.13
2022-09-28T12:46:17.676Z,97974.47
2022-09-28T12:51:55.152Z,97975.50
2022-09-28T12:54:40.215Z,97974.66
2022-09-28T12:57:28.986Z,97969.44
2022-09-28T13:00:17.662Z,97968.66
2022-09-28T13:02:53.251Z,97966.66
2022-09-28T13:05:28.523Z,97973.41
2022-09-28T13:08:02.538Z,97973.28
2022-09-28T13:11:10.095Z,97973.09
2022-09-28T13:14:12.040Z,97971.22
2022-09-28T13:16:47.612Z,97978.28
2022-09-28T13:19:14.169Z,97965.28
2022-09-28T13:21:50.349Z,97960.88
2022-09-28T13:24:34.091Z,97971.94
2022-09-28T13:27:13.246Z,97966.50
2022-09-28T13:29:41.416Z,97970.81
2022-09-28T13:32:09.804Z,97966.41
2022-09-28T13:34:38.111Z,97971.56
2022-09-28T13:37:25.659Z,97971.66
2022-09-28T13:40:05.651Z,97973.63
2022-09-28T13:42:44.467Z,97972.94
2022-09-28T13:45:32.337Z,97983.63
2022-09-28T13:48:11.817Z,97987.31
2022-09-28T13:50:58.221Z,97986.50
2022-09-28T13:53:36.901Z,97992.56
2022-09-28T13:56:18.407Z,97993.50
2022-09-28T13:58:51.462Z,97999.66
2022-09-28T14:01:40.683Z,97991.19
2022-09-28T14:04:19.012Z,98007.59
2022-09-28T14:07:08.583Z,98004.31
2022-09-28T14:09:47.116Z,98007.03
2022-09-28T14:12:25.759Z,98005.44
2022-09-28T14:14:52.816Z,97990.19
2022-09-28T14:17:19.309Z,98002.09
2022-09-28T14:19:52.668Z,97996.97
2022-09-28T14:22:52.499Z,97999.56
2022-09-28T14:25:31.810Z,98005.63
2022-09-28T14:28:31.941Z,98008.22
2022-09-28T14:31:08.775Z,98000.47
2022-09-28T14:33:35.636Z,98008.06
2022-09-28T14:36:06.398Z,98008.84
2022-09-28T14:39:04.007Z,98026.13
2022-09-28T14:41:37.856Z,98012.47
2022-09-28T14:44:08.741Z,98038.31
2022-09-28T14:46:43.408Z,98028.88
2022-09-28T14:49:23.327Z,98028.97
2022-09-28T14:51:56.061Z,98029.84
2022-09-28T14:54:29.737Z,98035.94
2022-09-28T14:57:15.330Z,98041.19
2022-09-28T14:59:46.156Z,98043.84
2022-09-28T15:02:13.492Z,98049.84
2022-09-28T15:04:49.892Z,98061.94
2022-09-28T15:07:40.632Z,98057.81
2022-09-28T15:10:26.641Z,98052.69
2022-09-28T15:12:56.026Z,98056.97
2022-09-28T15:15:38.851Z,98054.44
2022-09-28T15:18:16.623Z,98060.53
2022-09-28T15:20:47.514Z,98070.09
2022-09-28T15:23:26.707Z,98072.00
2022-09-28T15:25:55.024Z,98079.69
2022-09-28T15:28:23.857Z,98080.59
2022-09-28T15:30:51.518Z,98075.44
2022-09-28T15:33:46.125Z,98079.81
2022-09-28T15:36:26.576Z,98092.69
2022-09-28T15:39:31.646Z,98095.34
2022-09-28T15:41:59.502Z,98094.50
2022-09-28T15:44:32.957Z,98098.03
2022-09-28T15:47:08.759Z,98100.66
2022-09-28T15:49:41.292Z,98120.50
2022-09-28T15:52:23.663Z,98116.34
2022-09-28T15:54:50.831Z,98122.47
2022-09-28T15:57:39.349Z,98119.06
2022-09-28T16:00:21.839Z,98124.16
2022-09-28T16:03:06.849Z,98128.47
2022-09-28T16:05:46.660Z,98124.22
2022-09-28T16:08:24.177Z,98135.44
2022-09-28T16:10:59.652Z,98138.88
2022-09-28T16:13:26.650Z,98157.06
2022-09-28T16:16:00.251Z,98154.69
2022-09-28T16:18:29.511Z,98167.84
2022-09-28T16:21:21.456Z,98170.66
2022-09-28T16:23:55.600Z,98172.59
2022-09-28T16:26:33.641Z,98173.66
2022-09-28T16:29:05.820Z,98178.97
2022-09-28T16:31:34.411Z,98174.91
2022-09-28T16:34:20.015Z,98172.47
2022-09-28T16:36:49.463Z,98176.88
2022-09-28T16:39:17.452Z,98179.66
2022-09-28T16:41:51.679Z,98174.59
2022-09-28T16:44:36.414Z,98177.38
2022-09-28T16:47:03.025Z,98192.16
2022-09-28T16:49:31.560Z,98187.94
2022-09-28T16:51:58.083Z,98190.59
2022-09-28T16:54:44.012Z,98192.47
2022-09-28T16:57:14.811Z,98195.94
2022-09-28T16:59:41.416Z,98185.78
2022-09-28T17:05:13.443Z,98190.31
2022-09-28T17:07:40.355Z,98190.47
2022-09-28T17:10:45.100Z,98202.53
2022-09-28T17:13:31.495Z,98201.75
2022-09-28T17:15:58.582Z,98205.25
2022-09-28T17:18:25.286Z,98209.63
2022-09-28T17:20:55.597Z,98214.88
2022-09-28T17:23:22.225Z,98221.84
2022-09-28T17:25:49.013Z,98216.84
2022-09-28T17:28:22.335Z,98233.06
2022-09-28T17:30:49.031Z,98240.06
2022-09-28T17:33:15.767Z,98243.59
2022-09-28T17:35:45.302Z,98243.59
2022-09-28T17:38:13.715Z,98245.38
2022-09-28T17:40:40.930Z,98234.31
2022-09-28T17:43:07.836Z,98261.66
2022-09-28T17:45:39.504Z,98261.72
2022-09-28T17:48:15.854Z,98260.03
2022-09-28T17:50:46.470Z,98266.06
2022-09-28T17:53:14.130Z,98264.44
2022-09-28T17:55:43.056Z,98266.16
2022-09-28T17:58:19.601Z,98260.22
2022-09-28T18:00:49.919Z,98267.91
2022-09-28T18:03:20.039Z,98268.88
2022-09-28T18:05:49.792Z,98275.75
2022-09-28T18:08:20.744Z,98274.91
2022-09-28T18:10:47.595Z,98283.44
2022-09-28T18:13:14.633Z,98285.19
2022-09-28T18:15:41.658Z,98291.22
2022-09-28T18:18:09.906Z,98289.50
2022-09-28T18:20:37.612Z,98297.19
2022-09-28T18:23:04.647Z,98302.44
2022-09-28T18:25:31.744Z,98299.88
2022-09-28T18:28:00.121Z,98311.03
2022-09-28T18:30:28.243Z,98300.81
2022-09-28T18:32:55.620Z,98305.94
2022-09-28T18:35:23.428Z,98318.78
2022-09-28T18:37:50.430Z,98311.13
2022-09-28T18:40:17.841Z,98311.16
2022-09-28T18:42:44.486Z,98319.72
2022-09-28T18:45:11.731Z,98318.88
2022-09-28T18:47:39.234Z,98324.91
2022-09-28T18:50:06.461Z,98329.22
2022-09-28T18:52:36.236Z,98333.50
2022-09-28T18:55:02.975Z,98323.28
2022-09-28T18:57:29.650Z,98326.72
2022-09-28T18:59:56.310Z,98340.41
2022-09-28T19:02:23.044Z,98338.75
2022-09-28T19:04:49.803Z,98330.19
2022-09-28T19:07:17.014Z,98342.16
2022-09-28T19:09:44.190Z,98349.06
2022-09-28T19:12:11.622Z,98351.66
2022-09-28T19:14:39.297Z,98349.97
2022-09-28T19:17:06.197Z,98361.09
2022-09-28T19:19:33.016Z,98356.84
2022-09-28T19:21:59.676Z,98357.69
2022-09-28T19:24:26.477Z,98359.41
2022-09-28T19:26:56.615Z,98371.41
2022-09-28T19:29:23.323Z,98368.81
2022-09-28T19:31:51.944Z,98378.25
2022-09-28T19:34:18.817Z,98370.59
2022-09-28T19:36:45.483Z,98385.13
2022-09-28T19:39:15.315Z,98380.84
2022-09-28T19:41:44.821Z,98383.47
2022-09-28T19:44:24.773Z,98384.34
2022-09-28T19:46:54.581Z,98380.09
2022-09-28T19:49:22.675Z,98388.66
2022-09-28T19:52:11.524Z,98391.22
2022-09-28T19:54:38.078Z,98383.56
2022-09-28T19:57:07.858Z,98404.06
2022-09-28T19:59:36.503Z,98395.56
2022-09-28T20:02:04.578Z,98404.94
2022-09-28T20:04:31.249Z,98404.09
2022-09-28T20:06:57.763Z,98397.28
2022-09-28T20:09:25.970Z,98397.25
2022-09-28T20:11:53.186Z,98404.97
2022-09-28T20:14:21.473Z,98404.09
2022-09-28T20:16:50.026Z,98405.84
2022-09-28T20:19:19.146Z,98412.66
2022-09-28T20:21:48.031Z,98408.38
2022-09-28T20:24:16.542Z,98410.09
2022-09-28T20:26:44.367Z,98419.47
2022-09-28T20:29:11.343Z,98413.50
2022-09-28T20:31:38.235Z,98411.81
2022-09-28T20:34:05.661Z,98417.78
2022-09-28T20:36:32.635Z,98419.50
2022-09-28T20:39:03.227Z,98424.63
2022-09-28T20:41:35.699Z,98423.78
2022-09-28T20:44:05.587Z,98422.91
2022-09-28T20:46:33.559Z,98426.31
2022-09-28T20:49:00.394Z,98416.06
2022-09-28T20:51:27.019Z,98408.38
2022-09-28T20:53:55.455Z,98414.34
2022-09-28T20:56:30.572Z,98430.56
2022-09-28T20:58:57.351Z,98416.06
2022-09-28T21:01:25.252Z,98418.63
2022-09-28T21:03:54.479Z,98423.72
2022-09-28T21:06:23.104Z,98432.25
2022-09-28T21:08:50.188Z,98433.97
2022-09-28T21:11:19.446Z,98431.41
2022-09-28T21:13:46.435Z,98431.41
2022-09-28T21:16:15.161Z,98440.78
2022-09-28T21:18:42.061Z,98439.06
2022-09-28T21:21:12.064Z,98444.16
2022-09-28T21:23:38.853Z,98436.47
2022-09-28T21:26:12.889Z,98444.97
2022-09-28T21:28:40.127Z,98452.63
2022-09-28T21:31:10.240Z,98445.78
2022-09-28T21:33:37.220Z,98441.53
2022-09-28T21:36:06.586Z,98448.34
2022-09-28T21:38:34.711Z,98448.31
2022-09-28T21:41:01.324Z,98453.44
2022-09-28T21:43:30.244Z,98461.94
2022-09-28T21:45:58.098Z,98461.94
2022-09-28T21:48:27.169Z,98466.19
2022-09-28T21:51:02.004Z,98477.25
2022-09-28T21:53:31.464Z,98464.41
2022-09-28T21:56:00.026Z,98484.03
2022-09-28T21:58:29.284Z,98471.22
2022-09-28T22:01:08.042Z,98489.09
2022-09-28T22:03:36.555Z,98489.09
2022-09-28T22:06:04.537Z,98481.38
2022-09-28T22:08:31.629Z,98489.91
2022-09-28T22:11:03.683Z,98482.16
2022-09-28T22:13:32.564Z,98491.59
2022-09-28T22:15:59.199Z,98491.56
2022-09-28T22:18:27.801Z,98492.41
2022-09-28T22:21:02.867Z,98504.31
2022-09-28T22:23:30.416Z,98505.16
2022-09-28T22:26:01.598Z,98500.84
2022-09-28T22:28:28.729Z,98498.28
2022-09-28T22:30:56.233Z,98506.78
2022-09-28T22:33:23.350Z,98500.78
2022-09-28T22:35:51.294Z,98500.78
2022-09-28T22:38:23.107Z,98504.16
2022-09-28T22:40:54.139Z,98504.97
2022-09-28T22:43:22.629Z,98509.22
2022-09-28T22:45:50.128Z,98504.91
2022-09-28T22:48:16.833Z,98517.72
2022-09-28T22:50:51.422Z,98507.44
2022-09-28T22:53:18.635Z,98501.44
2022-09-28T22:55:45.356Z,98512.53
2022-09-28T22:58:12.364Z,98508.22
2022-09-28T23:00:38.932Z,98504.84
2022-09-28T23:03:05.560Z,98509.97
2022-09-28T23:05:32.243Z,98500.53
2022-09-28T23:07:58.808Z,98507.38
2022-09-28T23:10:25.454Z,98511.63
2022-09-28T23:12:54.987Z,98509.06
2022-09-28T23:15:22.511Z,98496.19
2022-09-28T23:17:55.198Z,98512.41
2022-09-28T23:20:22.097Z,98514.94
2022-09-28T23:22:49.503Z,98515.78
2022-09-28T23:25:17.733Z,98508.91
2022-09-28T23:27:48.485Z,98508.84
2022-09-28T23:30:17.126Z,98522.53
2022-09-28T23:32:44.070Z,98523.38
2022-09-28T23:35:11.421Z,98521.63
2022-09-28T23:37:38.829Z,98519.03
2022-09-28T23:40:06.974Z,98530.09
2022-09-28T23:42:35.441Z,98522.41
2022-09-28T23:45:02.043Z,98516.44
2022-09-28T23:47:28.709Z,98519.81
2022-09-28T23:49:55.283Z,98518.97
2022-09-28T23:52:21.807Z,98516.38
2022-09-28T23:54:48.357Z,98523.16
2022-09-28T23:57:14.895Z,98527.38
2022-09-28T23:59:41.438Z,98535.09
